Meadows Field Bakersfield US
ICAO: KBFL
IATA: BFL
Category: Medium
Scheduled Services: No

Elevation: 510 ft
TransAlt. 18000 ft.

Airport Communications:
BAKERSFIELD APP:118.8
ATIS:118.6
CTAF:118.1
BAKERSFIELD DEP:126.45
GND:121.7
RANCHO RDO:122.45
BAKERSFIELD TWR:118.1
UNICOM:122.95

KBFL Zoom In..

If you have problems with the map follow the link
https://www.worldairports.se/pages/airport.php?
ICAO=KBFL

Runways:

(A) RW 12L length 10855 ft width 150 ft
---- / hdg 121

(B) RW 12R length 7703 ft width 100 ft
---- / hdg 121

(C) RW 30L length 7703 ft width 100 ft
---- / hdg 301

(D) RW 30R length 10855 ft width 150 ft
ILS 111.90 / hdg 301

Location; KBFL
Day. 16 / Time. 02.54 Zulu
* Altimeter: 30.09
* Temperature: 12° c. 53.6°f.
* Wind from: 030° Speed 03 kn.
Dewpoint: -03° c.
Visibility: 6 Statute Miles.
Clouds: Clear (automated report).
Conditions: Haze.

KBFL 160254Z 03003KT 6SM HZ CLR 12/M03 A3009 RMK AO2 SLP188 T01171028 52003


Wind From 030°
Speed 03 kn.

 
 
jpsmedia.com for Web Design worldairports.se 2018   terms of use